Time;durP1;ratioP1;P1;durP2;ratioP2;P2;SDS_P1;SDS_P2;PMS_P1;PMS_P2;Temp;Humidity;BMP_temperature;BMP_pressure;BME280_temperature;BME280_humidity;BME280_pressure;Samples;Min_cycle;Max_cycle;Signal;HPM_P1;HPM_P2
2021/10/20 00:00:14;;;;;;;4.90;3.90;;;;;;;;;;5031184;28;20181;-65
2021/10/20 00:02:41;;;;;;;4.87;4.13;;;;;;;;;;5007350;28;20185;-64
2021/10/20 00:05:07;;;;;;;4.80;3.83;;;;;;;;;;5010167;28;20186;-63
2021/10/20 00:07:34;;;;;;;4.17;3.77;;;;;;;;;;5010678;28;21487;-64
2021/10/20 00:10:00;;;;;;;4.47;3.40;;;;;;;;;;5029094;28;20683;-64
2021/10/20 00:12:26;;;;;;;4.17;3.60;;;;;;;;;;4996169;28;20214;-64
2021/10/20 00:14:53;;;;;;;4.30;3.20;;;;;;;;;;5010037;28;20310;-63
2021/10/20 00:17:21;;;;;;;5.67;3.80;;;;;;;;;;5027268;28;20186;-63
2021/10/20 00:19:49;;;;;;;4.77;3.63;;;;;;;;;;5009561;28;20564;-64
2021/10/20 00:22:16;;;;;;;3.60;3.27;;;;;;;;;;5010591;28;20622;-63
2021/10/20 00:24:42;;;;;;;4.97;3.87;;;;;;;;;;5009715;28;20192;-65
2021/10/20 00:27:08;;;;;;;4.37;3.53;;;;;;;;;;5031579;28;20541;-64
2021/10/20 00:29:35;;;;;;;3.43;3.13;;;;;;;;;;5008953;28;20261;-64
2021/10/20 00:32:10;;;;;;;4.10;3.70;;;;;;;;;;5028456;28;20884;-65
2021/10/20 00:34:36;;;;;;;4.03;3.63;;;;;;;;;;5011484;28;20197;-65
2021/10/20 00:37:05;;;;;;;5.67;3.70;;;;;;;;;;5010010;28;20197;-64
2021/10/20 00:39:32;;;;;;;3.50;3.07;;;;;;;;;;5010310;28;20178;-64
2021/10/20 00:41:58;;;;;;;5.53;3.83;;;;;;;;;;5031003;28;20181;-64
2021/10/20 00:44:44;;;;;;;5.37;4.00;;;;;;;;;;5009191;28;20185;-64
2021/10/20 00:47:10;;;;;;;3.53;3.23;;;;;;;;;;5021943;28;20261;-64
2021/10/20 00:49:39;;;;;;;5.30;3.40;;;;;;;;;;5009849;28;20658;-63
2021/10/20 00:52:06;;;;;;;3.77;3.40;;;;;;;;;;5027519;28;20198;-63
2021/10/20 00:54:32;;;;;;;6.17;3.87;;;;;;;;;;5009746;28;20205;-62
2021/10/20 00:56:59;;;;;;;9.30;3.80;;;;;;;;;;5005338;28;20183;-63
2021/10/20 00:59:25;;;;;;;4.37;3.70;;;;;;;;;;5012169;28;20181;-63
2021/10/20 01:01:52;;;;;;;4.47;4.07;;;;;;;;;;5016323;28;20206;-63
2021/10/20 01:04:18;;;;;;;3.57;2.97;;;;;;;;;;5043517;28;21021;-63
2021/10/20 01:06:45;;;;;;;4.57;3.83;;;;;;;;;;5009044;28;20186;-63
2021/10/20 01:09:14;;;;;;;5.70;3.67;;;;;;;;;;5009864;28;20636;-63
2021/10/20 01:11:41;;;;;;;4.63;3.90;;;;;;;;;;5009361;28;20241;-63
2021/10/20 01:14:08;;;;;;;2.83;2.63;;;;;;;;;;5024060;28;20917;-63
2021/10/20 01:16:37;;;;;;;5.07;3.83;;;;;;;;;;5029944;28;20200;-62
2021/10/20 01:19:06;;;;;;;3.63;3.33;;;;;;;;;;5011457;28;20182;-64
2021/10/20 01:21:32;;;;;;;3.90;2.93;;;;;;;;;;5027222;28;20240;-62
2021/10/20 01:24:02;;;;;;;3.70;3.40;;;;;;;;;;5009957;28;20201;-62
2021/10/20 01:26:29;;;;;;;3.80;3.50;;;;;;;;;;5032017;28;20186;-62
2021/10/20 01:29:04;;;;;;;3.97;3.43;;;;;;;;;;5009617;28;20203;-62
2021/10/20 01:31:34;;;;;;;3.90;3.53;;;;;;;;;;5008248;28;20260;-63
2021/10/20 01:34:00;;;;;;;3.57;3.27;;;;;;;;;;5032277;28;20233;-63
2021/10/20 01:36:30;;;;;;;4.77;3.40;;;;;;;;;;5008404;28;20271;-63
2021/10/20 01:38:59;;;;;;;3.73;3.30;;;;;;;;;;5037545;28;20232;-63
2021/10/20 01:41:26;;;;;;;3.97;3.57;;;;;;;;;;5012291;28;20594;-63
2021/10/20 01:43:55;;;;;;;3.67;3.33;;;;;;;;;;5014669;28;20182;-63
2021/10/20 01:46:25;;;;;;;4.93;3.67;;;;;;;;;;5027277;28;20332;-65
2021/10/20 01:48:51;;;;;;;3.83;3.40;;;;;;;;;;5018989;28;20192;-63
2021/10/20 01:51:20;;;;;;;4.33;3.47;;;;;;;;;;5012405;28;20185;-67
2021/10/20 01:53:53;;;;;;;6.87;3.17;;;;;;;;;;5012333;28;20198;-65
2021/10/20 01:56:20;;;;;;;3.97;3.63;;;;;;;;;;5011801;28;20176;-64
2021/10/20 01:58:48;;;;;;;3.87;3.47;;;;;;;;;;5008779;28;20202;-63
2021/10/20 02:01:15;;;;;;;3.30;3.00;;;;;;;;;;5005465;28;20201;-64
2021/10/20 02:03:41;;;;;;;5.27;3.37;;;;;;;;;;5008566;28;20310;-64
2021/10/20 02:06:11;;;;;;;3.87;3.43;;;;;;;;;;5005881;28;20225;-65
2021/10/20 02:08:41;;;;;;;3.50;3.20;;;;;;;;;;5024093;28;20174;-64
2021/10/20 02:11:08;;;;;;;5.97;3.30;;;;;;;;;;5010688;28;20267;-64
2021/10/20 02:13:34;;;;;;;4.03;3.70;;;;;;;;;;5007600;28;20214;-63
2021/10/20 02:16:03;;;;;;;3.90;3.10;;;;;;;;;;5015407;28;20635;-63
2021/10/20 02:18:29;;;;;;;3.40;3.10;;;;;;;;;;5011199;28;20180;-63
2021/10/20 02:20:59;;;;;;;4.00;3.47;;;;;;;;;;5011485;28;20528;-63
2021/10/20 02:23:26;;;;;;;3.47;3.13;;;;;;;;;;5021220;28;20261;-63
2021/10/20 02:25:52;;;;;;;4.53;3.30;;;;;;;;;;5029059;28;20252;-63
2021/10/20 02:28:22;;;;;;;3.80;3.50;;;;;;;;;;5033578;28;20277;-67
2021/10/20 02:30:51;;;;;;;3.87;3.40;;;;;;;;;;5037958;28;20200;-64
2021/10/20 02:33:17;;;;;;;3.80;3.50;;;;;;;;;;5038758;28;20198;-64
2021/10/20 02:35:43;;;;;;;4.03;3.50;;;;;;;;;;5029580;28;20566;-63
2021/10/20 02:38:09;;;;;;;3.60;3.17;;;;;;;;;;5022676;28;20633;-63
2021/10/20 02:40:36;;;;;;;4.10;3.60;;;;;;;;;;5030242;28;20193;-64
2021/10/20 02:43:02;;;;;;;4.27;3.47;;;;;;;;;;5010431;28;20182;-65
2021/10/20 02:45:28;;;;;;;3.30;3.00;;;;;;;;;;5029122;28;20176;-64
2021/10/20 02:47:54;;;;;;;5.97;3.83;;;;;;;;;;5011695;28;20219;-65
2021/10/20 02:50:22;;;;;;;4.97;3.80;;;;;;;;;;5029926;28;20206;-63
2021/10/20 02:52:52;;;;;;;4.17;3.73;;;;;;;;;;5010731;28;20202;-63
2021/10/20 02:55:18;;;;;;;4.50;3.43;;;;;;;;;;5010984;28;20201;-63
2021/10/20 02:57:47;;;;;;;3.87;3.43;;;;;;;;;;5028433;28;20177;-64
2021/10/20 03:00:13;;;;;;;4.33;3.20;;;;;;;;;;5016834;28;20675;-64
2021/10/20 03:02:39;;;;;;;4.50;3.70;;;;;;;;;;5028572;28;20178;-64
2021/10/20 03:05:06;;;;;;;4.53;3.50;;;;;;;;;;5011409;28;20274;-64
2021/10/20 03:07:32;;;;;;;6.67;3.70;;;;;;;;;;5027203;28;20221;-64
2021/10/20 03:09:59;;;;;;;5.03;3.87;;;;;;;;;;5012381;28;20181;-64
2021/10/20 03:12:25;;;;;;;3.70;3.40;;;;;;;;;;5009557;28;20186;-64
2021/10/20 03:14:54;;;;;;;4.97;3.70;;;;;;;;;;5011018;28;20755;-64
2021/10/20 03:17:27;;;;;;;4.17;3.73;;;;;;;;;;5028567;28;20193;-63
2021/10/20 03:19:53;;;;;;;4.83;3.70;;;;;;;;;;5011054;28;20186;-63
2021/10/20 03:22:20;;;;;;;4.10;3.70;;;;;;;;;;5011772;28;20200;-64
2021/10/20 03:24:48;;;;;;;5.93;4.17;;;;;;;;;;5010903;28;20661;-65
2021/10/20 03:27:14;;;;;;;4.97;3.10;;;;;;;;;;5009226;28;20189;-65
2021/10/20 03:29:42;;;;;;;4.47;3.83;;;;;;;;;;5003061;28;20608;-64
2021/10/20 03:32:11;;;;;;;4.87;4.47;;;;;;;;;;5011196;28;20186;-63
2021/10/20 03:34:38;;;;;;;6.07;3.80;;;;;;;;;;5028057;28;20246;-64
2021/10/20 03:37:04;;;;;;;4.20;3.80;;;;;;;;;;5014274;28;20173;-64
2021/10/20 03:39:30;;;;;;;3.50;3.20;;;;;;;;;;5012451;28;20193;-63
2021/10/20 03:41:59;;;;;;;4.20;3.40;;;;;;;;;;5010554;28;20190;-64
2021/10/20 03:44:25;;;;;;;4.37;3.90;;;;;;;;;;5027583;28;20655;-64
2021/10/20 03:46:51;;;;;;;4.20;3.50;;;;;;;;;;5034162;28;20576;-63
2021/10/20 03:49:20;;;;;;;4.20;3.80;;;;;;;;;;5027872;28;20285;-64
2021/10/20 03:51:46;;;;;;;3.43;2.93;;;;;;;;;;5010924;28;20272;-64
2021/10/20 03:54:15;;;;;;;4.33;3.93;;;;;;;;;;5010763;28;20205;-63
2021/10/20 03:56:44;;;;;;;6.00;3.93;;;;;;;;;;5002252;28;20244;-63
2021/10/20 03:59:11;;;;;;;4.37;3.97;;;;;;;;;;5010148;28;20182;-64
2021/10/20 04:01:37;;;;;;;4.50;4.03;;;;;;;;;;5008924;28;20236;-63
2021/10/20 04:04:03;;;;;;;5.03;3.80;;;;;;;;;;5009798;28;20229;-63
2021/10/20 04:06:30;;;;;;;5.27;4.10;;;;;;;;;;5009683;28;20186;-63
2021/10/20 04:08:56;;;;;;;4.03;3.63;;;;;;;;;;5010854;28;20182;-64
2021/10/20 04:11:22;;;;;;;5.20;4.00;;;;;;;;;;5027065;28;20481;-63
2021/10/20 04:13:48;;;;;;;4.77;4.27;;;;;;;;;;5028172;28;20236;-64
2021/10/20 04:16:17;;;;;;;7.50;4.17;;;;;;;;;;5015825;28;21318;-63
2021/10/20 04:18:46;;;;;;;4.90;3.97;;;;;;;;;;5010525;28;20189;-63
2021/10/20 04:21:13;;;;;;;5.33;4.93;;;;;;;;;;5010174;28;20301;-63
2021/10/20 04:23:39;;;;;;;5.13;3.87;;;;;;;;;;5010107;28;20185;-63
2021/10/20 04:26:05;;;;;;;6.57;4.33;;;;;;;;;;5007226;28;20235;-63
2021/10/20 04:28:32;;;;;;;4.37;3.97;;;;;;;;;;5010262;28;20670;-63
2021/10/20 04:30:58;;;;;;;4.90;3.63;;;;;;;;;;4991112;28;20280;-63
2021/10/20 04:33:27;;;;;;;5.93;4.87;;;;;;;;;;5033912;28;20197;-63
2021/10/20 04:35:53;;;;;;;4.17;3.77;;;;;;;;;;5027661;28;20177;-63
2021/10/20 04:38:19;;;;;;;4.73;3.87;;;;;;;;;;5027707;28;20204;-63
2021/10/20 04:40:45;;;;;;;4.50;4.10;;;;;;;;;;5009017;28;20182;-63
2021/10/20 04:43:11;;;;;;;4.20;3.80;;;;;;;;;;5027127;28;20181;-63
2021/10/20 04:45:38;;;;;;;4.33;3.93;;;;;;;;;;5025265;28;20182;-64
2021/10/20 04:48:04;;;;;;;5.67;4.03;;;;;;;;;;5029382;28;20185;-64
2021/10/20 04:50:31;;;;;;;5.33;3.60;;;;;;;;;;5008748;28;20663;-64
2021/10/20 04:52:57;;;;;;;5.57;3.80;;;;;;;;;;5024871;28;20206;-64
2021/10/20 04:55:23;;;;;;;5.60;4.77;;;;;;;;;;5026981;28;20205;-64
2021/10/20 04:57:54;;;;;;;4.13;3.37;;;;;;;;;;5008528;28;20707;-64
2021/10/20 05:00:22;;;;;;;4.53;4.13;;;;;;;;;;5010122;28;20273;-64
2021/10/20 05:02:48;;;;;;;4.67;3.80;;;;;;;;;;5025630;28;20190;-64
2021/10/20 05:05:14;;;;;;;5.33;4.20;;;;;;;;;;5008284;28;20657;-63
2021/10/20 05:07:47;;;;;;;4.47;3.70;;;;;;;;;;4989907;28;20510;-63
2021/10/20 05:10:13;;;;;;;4.53;3.50;;;;;;;;;;4989570;28;20657;-63
2021/10/20 05:12:39;;;;;;;4.83;4.17;;;;;;;;;;4988922;28;20194;-63
2021/10/20 05:15:08;;;;;;;4.70;4.00;;;;;;;;;;5007047;28;20641;-63
2021/10/20 05:17:34;;;;;;;4.90;3.93;;;;;;;;;;4989991;28;20213;-63
2021/10/20 05:20:03;;;;;;;5.60;4.20;;;;;;;;;;5007885;28;20565;-63
2021/10/20 05:22:29;;;;;;;5.90;3.63;;;;;;;;;;4989685;28;20715;-63
2021/10/20 05:24:55;;;;;;;5.43;4.20;;;;;;;;;;5014657;28;20174;-63
2021/10/20 05:27:21;;;;;;;5.87;3.97;;;;;;;;;;5006144;28;20599;-63
2021/10/20 05:29:47;;;;;;;4.23;3.57;;;;;;;;;;4990997;28;20201;-63
2021/10/20 05:32:16;;;;;;;6.70;4.27;;;;;;;;;;5018723;28;20213;-63
2021/10/20 05:34:47;;;;;;;4.63;3.87;;;;;;;;;;4995912;28;20286;-63
2021/10/20 05:37:14;;;;;;;4.47;4.03;;;;;;;;;;4991428;28;20171;-63
2021/10/20 05:39:40;;;;;;;6.13;3.80;;;;;;;;;;5012016;28;20182;-64
2021/10/20 05:42:06;;;;;;;5.30;4.00;;;;;;;;;;4995259;28;20645;-63
2021/10/20 05:44:32;;;;;;;4.30;3.90;;;;;;;;;;5006913;28;20185;-63
2021/10/20 05:46:58;;;;;;;4.07;3.67;;;;;;;;;;4991157;28;20535;-63
2021/10/20 05:49:25;;;;;;;5.20;4.00;;;;;;;;;;4989309;28;20194;-63
2021/10/20 05:51:51;;;;;;;4.60;3.63;;;;;;;;;;4989146;28;20202;-63
2021/10/20 05:54:17;;;;;;;5.00;3.57;;;;;;;;;;4989630;28;20241;-63
2021/10/20 05:56:45;;;;;;;5.23;4.57;;;;;;;;;;5006701;28;20184;-63
2021/10/20 05:59:12;;;;;;;5.10;4.00;;;;;;;;;;5006292;28;20189;-64
2021/10/20 06:01:38;;;;;;;5.50;4.20;;;;;;;;;;4988488;28;20945;-63
2021/10/20 06:04:04;;;;;;;5.10;4.60;;;;;;;;;;4996900;28;20205;-63
2021/10/20 06:06:30;;;;;;;4.33;3.93;;;;;;;;;;5009067;28;20224;-64
2021/10/20 06:08:59;;;;;;;5.13;4.50;;;;;;;;;;5007877;28;20554;-64
2021/10/20 06:11:26;;;;;;;4.30;3.70;;;;;;;;;;5007942;28;20593;-64
2021/10/20 06:13:55;;;;;;;4.37;3.97;;;;;;;;;;5031967;28;20209;-64
2021/10/20 06:16:21;;;;;;;4.60;4.20;;;;;;;;;;5021111;28;20274;-64
2021/10/20 06:18:47;;;;;;;4.97;4.53;;;;;;;;;;5026482;28;20589;-64
2021/10/20 06:21:14;;;;;;;3.87;3.50;;;;;;;;;;5008083;28;20615;-64
2021/10/20 06:23:40;;;;;;;5.67;4.13;;;;;;;;;;5011092;28;20181;-63
2021/10/20 06:26:06;;;;;;;4.73;3.60;;;;;;;;;;5008010;28;20190;-63
2021/10/20 06:28:32;;;;;;;4.20;3.80;;;;;;;;;;5009779;28;20190;-64
2021/10/20 06:30:59;;;;;;;4.70;4.20;;;;;;;;;;5029708;28;20288;-64
2021/10/20 06:33:25;;;;;;;4.33;3.73;;;;;;;;;;5035200;28;20625;-64
2021/10/20 06:35:51;;;;;;;5.83;3.83;;;;;;;;;;5016665;28;20188;-64
2021/10/20 06:38:17;;;;;;;7.30;3.80;;;;;;;;;;5028146;28;20268;-64
2021/10/20 06:40:43;;;;;;;4.77;3.57;;;;;;;;;;5029783;28;20700;-64
2021/10/20 06:43:09;;;;;;;4.13;3.73;;;;;;;;;;5012297;28;20676;-63
2021/10/20 06:45:45;;;;;;;4.60;3.90;;;;;;;;;;5008879;28;20171;-64
2021/10/20 06:48:11;;;;;;;4.10;3.67;;;;;;;;;;5012046;28;20264;-63
2021/10/20 06:50:38;;;;;;;5.27;4.63;;;;;;;;;;5030271;28;20216;-64
2021/10/20 06:53:04;;;;;;;3.90;3.60;;;;;;;;;;5008030;28;20225;-64
2021/10/20 06:55:30;;;;;;;4.63;3.60;;;;;;;;;;5032057;28;20685;-64
2021/10/20 06:57:57;;;;;;;4.57;4.10;;;;;;;;;;5011229;28;20272;-64
2021/10/20 07:00:23;;;;;;;6.37;4.03;;;;;;;;;;5011295;28;20209;-64
2021/10/20 07:02:49;;;;;;;4.37;3.60;;;;;;;;;;5013310;28;20182;-64
2021/10/20 07:05:15;;;;;;;4.83;4.33;;;;;;;;;;5029526;28;20186;-64
2021/10/20 07:07:41;;;;;;;4.90;3.70;;;;;;;;;;5011238;28;20539;-64
2021/10/20 07:10:08;;;;;;;4.50;4.10;;;;;;;;;;5011232;28;20224;-64
2021/10/20 07:12:35;;;;;;;5.07;4.38;;;;;;;;;;5010001;28;20499;-65
2021/10/20 07:15:02;;;;;;;5.33;4.33;;;;;;;;;;5018666;28;20660;-65
2021/10/20 07:17:31;;;;;;;7.73;4.33;;;;;;;;;;5011768;28;20176;-65
2021/10/20 07:19:59;;;;;;;3.93;3.53;;;;;;;;;;5010945;28;20182;-64
2021/10/20 07:22:27;;;;;;;4.20;3.80;;;;;;;;;;5011737;28;20253;-64
2021/10/20 07:24:53;;;;;;;4.97;4.23;;;;;;;;;;5011168;28;20640;-65
2021/10/20 07:27:25;;;;;;;4.80;4.30;;;;;;;;;;5047914;28;20169;-64
2021/10/20 07:29:51;;;;;;;4.30;3.90;;;;;;;;;;5010491;28;20564;-64
2021/10/20 07:32:17;;;;;;;5.27;4.77;;;;;;;;;;5028774;28;20221;-64
2021/10/20 07:34:44;;;;;;;4.70;4.27;;;;;;;;;;5029342;28;20221;-64
2021/10/20 07:37:10;;;;;;;4.27;3.90;;;;;;;;;;5011083;28;20186;-64
2021/10/20 07:39:37;;;;;;;6.20;4.43;;;;;;;;;;5028628;28;20185;-64
2021/10/20 07:42:03;;;;;;;4.63;4.03;;;;;;;;;;5010119;28;20260;-64
2021/10/20 07:44:29;;;;;;;5.20;3.67;;;;;;;;;;5028378;28;20200;-64
2021/10/20 07:46:58;;;;;;;5.90;4.10;;;;;;;;;;5011367;28;20217;-65
2021/10/20 07:49:24;;;;;;;4.70;3.90;;;;;;;;;;5010190;28;20179;-64
2021/10/20 07:51:56;;;;;;;9.07;4.93;;;;;;;;;;5011276;28;20205;-65
2021/10/20 07:54:22;;;;;;;5.97;4.33;;;;;;;;;;5010296;28;20201;-64
2021/10/20 07:56:48;;;;;;;4.80;4.30;;;;;;;;;;5011122;28;20174;-64
2021/10/20 07:59:14;;;;;;;5.20;4.70;;;;;;;;;;5010166;28;20265;-65
2021/10/20 08:01:49;;;;;;;7.70;4.13;;;;;;;;;;5010717;28;20272;-64
2021/10/20 08:04:26;;;;;;;6.37;4.70;;;;;;;;;;5027850;28;20237;-64
2021/10/20 08:06:52;;;;;;;5.70;4.20;;;;;;;;;;5010749;28;20644;-64
2021/10/20 08:09:28;;;;;;;5.60;4.17;;;;;;;;;;5028469;28;20602;-64
2021/10/20 08:11:55;;;;;;;6.60;4.17;;;;;;;;;;5002148;28;20713;-64
2021/10/20 08:14:21;;;;;;;4.83;4.33;;;;;;;;;;5009488;28;20206;-64
2021/10/20 08:16:51;;;;;;;8.17;5.07;;;;;;;;;;5010996;28;20273;-64
2021/10/20 08:19:20;;;;;;;4.20;3.87;;;;;;;;;;5009787;28;20189;-64
2021/10/20 08:21:57;;;;;;;5.90;4.37;;;;;;;;;;5036181;28;20185;-65
2021/10/20 08:24:23;;;;;;;7.07;4.70;;;;;;;;;;5011558;28;20177;-64
2021/10/20 08:26:56;;;;;;;5.80;4.50;;;;;;;;;;5009378;28;20242;-64
2021/10/20 08:29:22;;;;;;;4.97;4.43;;;;;;;;;;5009401;28;20185;-64
2021/10/20 08:31:51;;;;;;;6.83;4.63;;;;;;;;;;5010260;28;20189;-64
2021/10/20 08:34:17;;;;;;;6.33;4.93;;;;;;;;;;5010058;28;20210;-65
2021/10/20 08:36:50;;;;;;;5.33;4.83;;;;;;;;;;5009848;28;20185;-65
2021/10/20 08:39:22;;;;;;;5.77;4.73;;;;;;;;;;5006779;28;20726;-64
2021/10/20 08:41:49;;;;;;;8.07;4.50;;;;;;;;;;5009489;28;20170;-65
2021/10/20 08:44:19;;;;;;;6.33;4.83;;;;;;;;;;5027148;28;20546;-64
2021/10/20 08:46:58;;;;;;;7.13;4.87;;;;;;;;;;5027780;28;20166;-65
2021/10/20 08:49:41;;;;;;;7.47;5.03;;;;;;;;;;5009169;28;20308;-64
2021/10/20 08:52:09;;;;;;;6.73;5.40;;;;;;;;;;5025424;28;20694;-65
2021/10/20 08:54:35;;;;;;;5.67;4.63;;;;;;;;;;5009133;28;20194;-65
2021/10/20 08:57:13;;;;;;;4.93;4.43;;;;;;;;;;5009273;28;20178;-65
2021/10/20 08:59:39;;;;;;;5.80;4.70;;;;;;;;;;5033187;28;20163;-64
2021/10/20 09:02:06;;;;;;;5.70;4.87;;;;;;;;;;5029568;28;20177;-65
2021/10/20 09:04:36;;;;;;;5.40;4.90;;;;;;;;;;5027966;28;20245;-64
2021/10/20 09:07:03;;;;;;;5.27;4.57;;;;;;;;;;5009685;28;20247;-64
2021/10/20 09:09:41;;;;;;;7.30;4.70;;;;;;;;;;5026944;28;20241;-65
2021/10/20 09:12:10;;;;;;;5.63;4.47;;;;;;;;;;5026170;28;20185;-65
2021/10/20 09:14:38;;;;;;;7.53;5.33;;;;;;;;;;5025620;28;20213;-64
2021/10/20 09:17:05;;;;;;;6.17;5.57;;;;;;;;;;5009523;28;20586;-65
2021/10/20 09:19:35;;;;;;;7.80;5.07;;;;;;;;;;5008568;28;20191;-65
2021/10/20 09:22:09;;;;;;;10.70;5.80;;;;;;;;;;5009675;28;20269;-66
2021/10/20 09:24:38;;;;;;;7.87;5.70;;;;;;;;;;5039624;28;20185;-66
2021/10/20 09:27:18;;;;;;;6.03;4.87;;;;;;;;;;5009097;28;20189;-65
2021/10/20 09:29:45;;;;;;;5.57;5.07;;;;;;;;;;5025723;28;20181;-66
2021/10/20 09:32:11;;;;;;;5.43;4.97;;;;;;;;;;5027049;28;20281;-66
2021/10/20 09:34:40;;;;;;;6.27;5.37;;;;;;;;;;5008796;28;20244;-66
2021/10/20 09:37:15;;;;;;;5.30;4.80;;;;;;;;;;5009014;28;20182;-67
2021/10/20 09:39:44;;;;;;;5.63;5.10;;;;;;;;;;5009367;28;20185;-67
2021/10/20 09:42:11;;;;;;;8.10;5.40;;;;;;;;;;5008407;28;20190;-67
2021/10/20 09:44:55;;;;;;;7.97;5.10;;;;;;;;;;5008473;28;20189;-65
2021/10/20 09:47:25;;;;;;;5.70;5.10;;;;;;;;;;5008912;28;20663;-68
2021/10/20 09:49:56;;;;;;;5.80;5.20;;;;;;;;;;5008625;28;20592;-67
2021/10/20 09:52:23;;;;;;;5.60;5.10;;;;;;;;;;5027234;28;20202;-67
2021/10/20 09:54:49;;;;;;;5.87;5.33;;;;;;;;;;5008691;28;20581;-67
2021/10/20 09:57:16;;;;;;;6.50;5.83;;;;;;;;;;5006320;28;20197;-65
2021/10/20 09:59:43;;;;;;;5.63;5.00;;;;;;;;;;5026626;28;20688;-66
2021/10/20 10:02:10;;;;;;;5.60;5.07;;;;;;;;;;5010230;28;20185;-66
2021/10/20 10:04:39;;;;;;;5.17;4.67;;;;;;;;;;5012644;28;20308;-66
2021/10/20 10:07:06;;;;;;;6.03;5.40;;;;;;;;;;5012932;28;20612;-65
2021/10/20 10:09:35;;;;;;;5.50;4.87;;;;;;;;;;5013196;28;20347;-66
2021/10/20 10:12:17;;;;;;;5.27;4.77;;;;;;;;;;5011453;28;20181;-65
2021/10/20 10:14:49;;;;;;;5.87;4.97;;;;;;;;;;5011225;28;20274;-66
2021/10/20 10:17:18;;;;;;;6.50;5.87;;;;;;;;;;5009089;28;20275;-66
2021/10/20 10:19:45;;;;;;;5.30;4.80;;;;;;;;;;5005547;28;20193;-65
2021/10/20 10:22:24;;;;;;;6.57;5.50;;;;;;;;;;5011716;28;20196;-64
2021/10/20 10:24:51;;;;;;;8.57;5.30;;;;;;;;;;5006517;28;20185;-66
2021/10/20 10:27:18;;;;;;;6.10;5.47;;;;;;;;;;5028873;28;20658;-66
2021/10/20 10:29:55;;;;;;;5.33;4.83;;;;;;;;;;5024216;28;20818;-66
2021/10/20 10:32:22;;;;;;;5.20;4.70;;;;;;;;;;5010820;28;20691;-67
2021/10/20 10:34:50;;;;;;;6.40;5.60;;;;;;;;;;5012383;28;20617;-66
2021/10/20 10:40:21;;;;;;;5.97;5.47;;;;;;;;;;5027285;28;20196;-66
2021/10/20 10:42:54;;;;;;;5.97;5.37;;;;;;;;;;5030527;28;20269;-66
2021/10/20 10:45:43;;;;;;;5.40;4.37;;;;;;;;;;5012373;28;20218;-67
2021/10/20 10:48:12;;;;;;;7.43;6.50;;;;;;;;;;5023885;28;20188;-66
2021/10/20 10:50:39;;;;;;;6.47;5.50;;;;;;;;;;5010962;28;20624;-66
2021/10/20 10:53:08;;;;;;;5.67;5.17;;;;;;;;;;5005335;28;20209;-66
2021/10/20 10:55:37;;;;;;;5.63;5.13;;;;;;;;;;5026980;28;20655;-66
2021/10/20 10:58:23;;;;;;;4.83;4.33;;;;;;;;;;5010409;28;20181;-66
2021/10/20 11:01:00;;;;;;;5.40;4.90;;;;;;;;;;5008183;28;20298;-66
2021/10/20 11:03:43;;;;;;;5.47;4.97;;;;;;;;;;5007994;28;20224;-66
2021/10/20 11:06:19;;;;;;;5.40;4.90;;;;;;;;;;5007476;28;20181;-66
2021/10/20 11:08:46;;;;;;;6.03;5.43;;;;;;;;;;5016379;28;20185;-66
2021/10/20 11:11:12;;;;;;;5.03;4.60;;;;;;;;;;5016660;28;20189;-66
2021/10/20 11:13:47;;;;;;;6.57;5.70;;;;;;;;;;5028894;28;20198;-66
2021/10/20 11:16:49;;;;;;;8.30;5.33;;;;;;;;;;5011161;28;20181;-66
2021/10/20 11:19:28;;;;;;;7.00;5.57;;;;;;;;;;5009832;28;20562;-66
2021/10/20 11:21:57;;;;;;;5.67;4.90;;;;;;;;;;5005460;28;20220;-66
2021/10/20 11:24:29;;;;;;;5.83;5.23;;;;;;;;;;5028414;28;20568;-66
2021/10/20 11:27:17;;;;;;;7.57;5.17;;;;;;;;;;5009892;28;20190;-66
2021/10/20 11:29:53;;;;;;;5.87;5.30;;;;;;;;;;5024407;28;20280;-66
2021/10/20 11:32:23;;;;;;;5.63;5.13;;;;;;;;;;5011080;28;20793;-66
2021/10/20 11:34:58;;;;;;;6.20;5.60;;;;;;;;;;5011055;28;20205;-67
2021/10/20 11:37:35;;;;;;;5.57;5.07;;;;;;;;;;5008059;28;20193;-67
2021/10/20 11:40:11;;;;;;;7.30;5.07;;;;;;;;;;5020511;28;20189;-66
2021/10/20 11:42:42;;;;;;;6.00;5.43;;;;;;;;;;5028073;28;20177;-68
2021/10/20 11:45:15;;;;;;;7.60;4.37;;;;;;;;;;5010005;28;20237;-66
2021/10/20 11:47:52;;;;;;;4.80;4.30;;;;;;;;;;5010399;28;20506;-66
2021/10/20 11:50:20;;;;;;;7.50;5.43;;;;;;;;;;5015407;28;20727;-68
2021/10/20 11:53:06;;;;;;;6.10;5.50;;;;;;;;;;5028717;28;20220;-69
2021/10/20 11:55:32;;;;;;;5.13;4.63;;;;;;;;;;5016530;28;20224;-67
2021/10/20 11:58:01;;;;;;;5.20;4.70;;;;;;;;;;5012296;28;20173;-66
2021/10/20 12:00:34;;;;;;;6.07;4.80;;;;;;;;;;5021973;28;20605;-66
2021/10/20 12:03:02;;;;;;;5.00;4.50;;;;;;;;;;5035763;28;20256;-66
2021/10/20 12:05:35;;;;;;;5.27;4.73;;;;;;;;;;5009417;28;20228;-66
2021/10/20 12:08:05;;;;;;;4.67;4.27;;;;;;;;;;5019143;28;20628;-66
2021/10/20 12:10:37;;;;;;;5.67;5.00;;;;;;;;;;5011334;28;20189;-66
2021/10/20 12:13:14;;;;;;;6.67;5.10;;;;;;;;;;5009667;28;20188;-66
2021/10/20 12:15:45;;;;;;;5.77;5.10;;;;;;;;;;5007515;28;20847;-66
2021/10/20 12:18:12;;;;;;;6.70;4.30;;;;;;;;;;5009364;28;20202;-66
2021/10/20 12:20:41;;;;;;;6.03;4.87;;;;;;;;;;5011661;28;20652;-66
2021/10/20 12:23:08;;;;;;;6.17;5.30;;;;;;;;;;5016098;28;21028;-67
2021/10/20 12:25:46;;;;;;;5.60;5.10;;;;;;;;;;5020694;28;20707;-66
2021/10/20 12:28:15;;;;;;;7.47;4.80;;;;;;;;;;5013397;28;20194;-66
2021/10/20 12:30:45;;;;;;;5.23;4.73;;;;;;;;;;5010646;28;20181;-66
2021/10/20 12:33:13;;;;;;;5.03;4.53;;;;;;;;;;5008729;28;20194;-66
2021/10/20 12:35:49;;;;;;;5.23;4.83;;;;;;;;;;5010366;28;20292;-66
2021/10/20 12:38:22;;;;;;;5.37;4.97;;;;;;;;;;5009349;28;20191;-65
2021/10/20 12:40:55;;;;;;;5.20;4.70;;;;;;;;;;5034173;28;20226;-66
2021/10/20 12:43:24;;;;;;;4.47;4.07;;;;;;;;;;5011515;28;20204;-66
2021/10/20 12:45:55;;;;;;;5.30;4.83;;;;;;;;;;5010281;28;20278;-66
2021/10/20 12:48:31;;;;;;;6.03;5.27;;;;;;;;;;5014666;28;20203;-66
2021/10/20 12:50:58;;;;;;;5.50;5.00;;;;;;;;;;5008849;28;20191;-66
2021/10/20 12:53:29;;;;;;;5.95;5.25;;;;;;;;;;5013848;28;20207;-66
2021/10/20 12:55:58;;;;;;;5.20;4.73;;;;;;;;;;5026615;28;20409;-66
2021/10/20 12:58:30;;;;;;;5.60;5.10;;;;;;;;;;5008349;28;20275;-66
2021/10/20 13:00:56;;;;;;;6.10;5.17;;;;;;;;;;5009078;28;20682;-67
2021/10/20 13:03:26;;;;;;;5.53;5.03;;;;;;;;;;5033027;28;20551;-67
2021/10/20 13:05:58;;;;;;;5.87;5.33;;;;;;;;;;5043932;28;20695;-67
2021/10/20 13:08:25;;;;;;;7.63;5.23;;;;;;;;;;5006460;28;20211;-66
2021/10/20 13:10:52;;;;;;;5.83;4.80;;;;;;;;;;5011897;28;20185;-66
2021/10/20 13:13:19;;;;;;;5.60;4.87;;;;;;;;;;5006352;28;20191;-66
2021/10/20 13:15:46;;;;;;;5.03;4.53;;;;;;;;;;5002406;28;20211;-65
2021/10/20 13:18:12;;;;;;;5.97;5.40;;;;;;;;;;5011978;28;20194;-65
2021/10/20 13:20:45;;;;;;;5.23;4.73;;;;;;;;;;5007724;28;20635;-65
2021/10/20 13:23:11;;;;;;;6.67;4.93;;;;;;;;;;5023233;28;20847;-65
2021/10/20 13:25:39;;;;;;;5.67;5.17;;;;;;;;;;5011480;28;20214;-65
2021/10/20 13:28:05;;;;;;;8.93;5.40;;;;;;;;;;5007426;28;20269;-65
2021/10/20 13:30:42;;;;;;;5.77;5.27;;;;;;;;;;5006936;28;20194;-65
2021/10/20 13:33:09;;;;;;;6.00;4.93;;;;;;;;;;5017626;28;20257;-65
2021/10/20 13:35:36;;;;;;;6.23;5.70;;;;;;;;;;5018261;28;20660;-65
2021/10/20 13:38:09;;;;;;;6.40;5.33;;;;;;;;;;5013712;28;20664;-66
2021/10/20 13:40:36;;;;;;;4.93;4.53;;;;;;;;;;5016518;28;20175;-65
2021/10/20 13:43:03;;;;;;;9.07;5.83;;;;;;;;;;5013915;28;20205;-66
2021/10/20 13:45:33;;;;;;;6.27;5.57;;;;;;;;;;5033476;28;20253;-65
2021/10/20 13:48:09;;;;;;;6.30;5.80;;;;;;;;;;5015768;28;20669;-65
2021/10/20 13:50:35;;;;;;;7.47;5.30;;;;;;;;;;5002849;28;20657;-66
2021/10/20 13:53:05;;;;;;;6.10;5.50;;;;;;;;;;5034102;28;20206;-67
2021/10/20 13:55:52;;;;;;;6.13;5.37;;;;;;;;;;5018459;28;20238;-66
2021/10/20 13:58:18;;;;;;;6.30;5.70;;;;;;;;;;5015532;28;20310;-67
2021/10/20 14:00:54;;;;;;;5.87;5.37;;;;;;;;;;5032921;28;20178;-66
2021/10/20 14:03:25;;;;;;;7.17;5.70;;;;;;;;;;5022078;28;20536;-66
2021/10/20 14:06:04;;;;;;;5.60;5.10;;;;;;;;;;5015700;28;20237;-66
2021/10/20 14:08:33;;;;;;;6.07;5.57;;;;;;;;;;5023586;28;20170;-67
2021/10/20 14:11:05;;;;;;;6.73;5.20;;;;;;;;;;5013950;28;20174;-66
2021/10/20 14:13:46;;;;;;;6.10;5.50;;;;;;;;;;5018556;28;20191;-66
2021/10/20 14:16:12;;;;;;;5.97;5.47;;;;;;;;;;5014375;28;20226;-66
2021/10/20 14:18:47;;;;;;;10.93;6.33;;;;;;;;;;5020573;28;20199;-66
2021/10/20 14:21:23;;;;;;;5.80;5.27;;;;;;;;;;5020937;28;20183;-66
2021/10/20 14:23:50;;;;;;;7.87;5.87;;;;;;;;;;5033966;28;20199;-66
2021/10/20 14:26:31;;;;;;;5.20;4.77;;;;;;;;;;5010554;28;20852;-66
2021/10/20 14:28:57;;;;;;;7.83;5.93;;;;;;;;;;5033349;28;20597;-66
2021/10/20 14:31:38;;;;;;;5.90;5.20;;;;;;;;;;5013455;28;20222;-66
2021/10/20 14:34:19;;;;;;;6.43;5.43;;;;;;;;;;5033479;28;20194;-66
2021/10/20 14:36:51;;;;;;;5.90;5.30;;;;;;;;;;5018688;28;20179;-67
2021/10/20 14:39:17;;;;;;;6.23;4.87;;;;;;;;;;5012804;28;20177;-66
2021/10/20 14:41:44;;;;;;;5.37;4.83;;;;;;;;;;5031638;28;20186;-66
2021/10/20 14:44:19;;;;;;;5.30;4.80;;;;;;;;;;5016001;28;20400;-66
2021/10/20 14:49:50;;;;;;;6.13;5.07;;;;;;;;;;5021325;28;20194;-66
2021/10/20 14:52:24;;;;;;;5.90;5.20;;;;;;;;;;5034531;28;20201;-65
2021/10/20 14:54:50;;;;;;;5.83;5.23;;;;;;;;;;5031528;28;20229;-65
2021/10/20 14:57:17;;;;;;;6.37;5.10;;;;;;;;;;5010265;28;20722;-65
2021/10/20 14:59:47;;;;;;;6.63;5.00;;;;;;;;;;5023545;28;20178;-65